createdAt,value
2023-03-29T00:02:07.989Z,101512.97
2023-03-29T00:04:36.989Z,101510.19
2023-03-29T00:07:06.018Z,101493.03
2023-03-29T00:09:36.556Z,101487.09
2023-03-29T00:12:05.642Z,101500.88
2023-03-29T00:14:34.462Z,101495.75
2023-03-29T00:17:03.451Z,101487.97
2023-03-29T00:19:35.875Z,101480.84
2023-03-29T00:22:06.010Z,101474.16
2023-03-29T00:24:36.983Z,101465.53
2023-03-29T00:27:06.942Z,101463.44
2023-03-29T00:29:36.761Z,101450.38
2023-03-29T00:32:06.674Z,101447.53
2023-03-29T00:34:36.396Z,101451.72
2023-03-29T00:37:08.022Z,101462.00
2023-03-29T00:39:42.605Z,101449.94
2023-03-29T00:42:14.899Z,101456.00
2023-03-29T00:45:18.956Z,101359.66
2023-03-29T00:47:49.677Z,101449.81
2023-03-29T00:50:25.732Z,101444.53
2023-03-29T00:53:00.961Z,101442.00
2023-03-29T00:55:36.523Z,101429.88
2023-03-29T00:58:08.999Z,101399.78
2023-03-29T01:00:43.342Z,101416.69
2023-03-29T01:03:15.468Z,101421.06
2023-03-29T01:05:48.958Z,101418.34
2023-03-29T01:08:21.716Z,101412.97
2023-03-29T01:10:56.391Z,101419.06
2023-03-29T01:13:29.767Z,101409.47
2023-03-29T01:16:00.067Z,101403.44
2023-03-29T01:18:31.491Z,101404.97
2023-03-29T01:21:19.582Z,101401.59
2023-03-29T01:24:09.270Z,101404.09
2023-03-29T01:27:00.681Z,101397.94
2023-03-29T01:29:37.118Z,101398.94
2023-03-29T01:32:10.101Z,101379.06
2023-03-29T01:34:46.206Z,101374.19
2023-03-29T01:37:21.971Z,101383.88
2023-03-29T01:39:51.065Z,101378.72
2023-03-29T01:42:32.841Z,101343.88
2023-03-29T01:45:12.431Z,101378.81
2023-03-29T01:47:48.035Z,101388.75
2023-03-29T01:50:21.009Z,101375.09
2023-03-29T01:52:56.673Z,101401.06
2023-03-29T01:55:30.057Z,101311.28
2023-03-29T01:58:04.887Z,101369.06
2023-03-29T02:00:37.562Z,101361.22
2023-03-29T02:03:10.105Z,101366.50
2023-03-29T02:05:41.225Z,101366.41
2023-03-29T02:08:14.677Z,101344.09
2023-03-29T02:10:43.817Z,101362.03
2023-03-29T02:13:13.990Z,101352.69
2023-03-29T02:15:45.902Z,101359.31
2023-03-29T02:18:18.081Z,101354.84
2023-03-29T02:20:51.014Z,101354.78
2023-03-29T02:23:27.544Z,101343.78
2023-03-29T02:25:59.100Z,101343.69
2023-03-29T02:28:30.297Z,101352.31
2023-03-29T02:31:06.822Z,101350.38
2023-03-29T02:33:45.929Z,101353.19
2023-03-29T02:36:23.795Z,101339.31
2023-03-29T02:38:55.880Z,101333.25
2023-03-29T02:41:27.221Z,101323.75
2023-03-29T02:43:59.423Z,101327.97
2023-03-29T02:46:31.606Z,101315.72
2023-03-29T02:49:01.768Z,101323.50
2023-03-29T02:51:34.959Z,101315.09
2023-03-29T02:54:08.505Z,101316.56
2023-03-29T02:56:46.876Z,101312.88
2023-03-29T02:59:20.982Z,101302.75
2023-03-29T03:01:52.883Z,101300.19
2023-03-29T03:04:23.701Z,101285.88
2023-03-29T03:06:53.629Z,101308.97
2023-03-29T03:09:22.614Z,101302.84
2023-03-29T03:11:52.150Z,101314.59
2023-03-29T03:14:23.257Z,101300.19
2023-03-29T03:16:55.285Z,101297.50
2023-03-29T03:19:26.335Z,101290.56
2023-03-29T03:21:56.525Z,101296.59
2023-03-29T03:24:25.870Z,101283.88
2023-03-29T03:26:56.143Z,101287.00
2023-03-29T03:29:26.225Z,101288.91
2023-03-29T03:32:26.481Z,101288.72
2023-03-29T03:35:15.439Z,101291.31
2023-03-29T03:37:44.997Z,101288.72
2023-03-29T03:40:14.744Z,101286.84
2023-03-29T03:42:44.366Z,101292.09
2023-03-29T03:45:13.907Z,101290.41
2023-03-29T03:47:56.374Z,101300.72
2023-03-29T03:50:34.617Z,101292.97
2023-03-29T03:53:04.721Z,101296.06
2023-03-29T03:55:56.439Z,101290.38
2023-03-29T03:58:32.841Z,101295.63
2023-03-29T04:01:02.795Z,101288.75
2023-03-29T04:03:46.085Z,101286.91
2023-03-29T04:06:20.084Z,101284.25
2023-03-29T04:09:10.372Z,101279.50
2023-03-29T04:11:44.307Z,101285.97
2023-03-29T04:14:15.343Z,101280.72
2023-03-29T04:16:56.942Z,101270.00
2023-03-29T04:19:45.928Z,101260.69
2023-03-29T04:22:15.059Z,101257.25
2023-03-29T04:24:44.901Z,101258.72
2023-03-29T04:27:37.520Z,101258.00
2023-03-29T04:30:16.180Z,101261.66
2023-03-29T04:33:02.451Z,101205.63
2023-03-29T04:35:33.456Z,101247.84
2023-03-29T04:38:04.504Z,101245.88
2023-03-29T04:40:35.452Z,101247.00
2023-03-29T04:43:12.317Z,101251.22
2023-03-29T04:45:49.201Z,101253.00
2023-03-29T04:48:36.664Z,101242.66
2023-03-29T04:51:08.219Z,101236.19
2023-03-29T04:53:37.471Z,101236.97
2023-03-29T04:56:07.071Z,101201.72
2023-03-29T04:59:07.870Z,101242.00
2023-03-29T05:01:37.001Z,101236.75
2023-03-29T05:04:05.949Z,101241.94
2023-03-29T05:06:42.031Z,101103.25
2023-03-29T05:09:10.878Z,101227.38
2023-03-29T05:11:53.510Z,101247.03
2023-03-29T05:14:23.610Z,101225.56
2023-03-29T05:16:52.638Z,101275.53
2023-03-29T05:19:22.563Z,101142.66
2023-03-29T05:21:55.315Z,101252.38
2023-03-29T05:24:25.959Z,101225.47
2023-03-29T05:26:54.820Z,101253.81
2023-03-29T05:29:24.647Z,101253.13
2023-03-29T05:32:01.456Z,101256.53
2023-03-29T05:34:31.551Z,101242.06
2023-03-29T05:37:04.988Z,101249.56
2023-03-29T05:39:44.128Z,101246.06
2023-03-29T05:42:15.727Z,101231.59
2023-03-29T05:44:54.491Z,101216.19
2023-03-29T05:47:23.881Z,101253.28
2023-03-29T05:49:55.171Z,101247.69
2023-03-29T05:52:28.720Z,101248.59
2023-03-29T05:54:58.135Z,101261.22
2023-03-29T05:57:27.886Z,101249.34
2023-03-29T05:59:56.942Z,101257.28
2023-03-29T06:02:28.631Z,101254.16
2023-03-29T06:04:57.617Z,101256.22
2023-03-29T06:07:26.931Z,101243.38
2023-03-29T06:10:29.860Z,101247.78
2023-03-29T06:13:12.825Z,101256.13
2023-03-29T06:15:45.115Z,101250.09
2023-03-29T06:18:14.070Z,101250.97
2023-03-29T06:20:42.838Z,101252.63
2023-03-29T06:23:15.807Z,101255.09
2023-03-29T06:25:46.892Z,101255.09
2023-03-29T06:28:16.619Z,101232.53
2023-03-29T06:30:47.137Z,101252.22
2023-03-29T06:33:17.320Z,101161.44
2023-03-29T06:35:58.048Z,101246.25
2023-03-29T06:38:30.978Z,101252.97
2023-03-29T06:41:21.585Z,101250.50
2023-03-29T06:44:08.937Z,101259.94
2023-03-29T06:46:45.811Z,101258.66
2023-03-29T06:49:16.846Z,101269.78
2023-03-29T06:52:02.197Z,101275.84
2023-03-29T06:54:31.353Z,101268.81
2023-03-29T06:57:05.883Z,101280.81
2023-03-29T06:59:35.837Z,101276.50
2023-03-29T07:02:31.928Z,101282.44
2023-03-29T07:05:14.487Z,101288.47
2023-03-29T07:07:56.602Z,101280.97
2023-03-29T07:10:39.569Z,101290.75
2023-03-29T07:13:36.141Z,101284.66
2023-03-29T07:16:12.484Z,101287.00
2023-03-29T07:18:50.113Z,101282.38
2023-03-29T07:21:37.945Z,101277.13
2023-03-29T07:24:08.760Z,101258.56
2023-03-29T07:26:38.210Z,101282.16
2023-03-29T07:29:09.377Z,101285.50
2023-03-29T07:31:40.970Z,101288.97
2023-03-29T07:34:37.009Z,101290.00
2023-03-29T07:37:09.390Z,101290.91
2023-03-29T07:39:40.427Z,101294.38
2023-03-29T07:42:36.646Z,101289.00
2023-03-29T07:45:09.467Z,101289.06
2023-03-29T07:47:50.223Z,101279.66
2023-03-29T07:50:21.740Z,101278.38
2023-03-29T07:52:51.194Z,101242.31
2023-03-29T07:55:20.751Z,101276.56
2023-03-29T07:57:59.197Z,101275.38
2023-03-29T08:00:29.862Z,101284.88
2023-03-29T08:03:18.719Z,101289.81
2023-03-29T08:05:47.708Z,101286.53
2023-03-29T08:08:18.085Z,101283.41
2023-03-29T08:10:54.350Z,101173.06
2023-03-29T08:13:37.455Z,101265.25
2023-03-29T08:16:43.594Z,101282.09
2023-03-29T08:19:16.698Z,101284.13
2023-03-29T08:22:03.941Z,101276.25
2023-03-29T08:24:50.803Z,101269.31
2023-03-29T08:27:21.400Z,101244.50
2023-03-29T08:29:50.429Z,101247.47
2023-03-29T08:32:20.969Z,101254.88
2023-03-29T08:34:50.829Z,101265.91
2023-03-29T08:37:25.988Z,101272.56
2023-03-29T08:39:57.622Z,101259.50
2023-03-29T08:43:13.824Z,101266.53
2023-03-29T08:46:23.533Z,101270.34
2023-03-29T08:48:57.918Z,101270.22
2023-03-29T08:51:33.869Z,101262.06
2023-03-29T08:54:07.376Z,101262.19
2023-03-29T08:56:59.600Z,101276.25
2023-03-29T08:59:34.920Z,101269.69
2023-03-29T09:02:17.897Z,101261.19
2023-03-29T09:04:53.818Z,101269.00
2023-03-29T09:07:33.886Z,101268.78
2023-03-29T09:10:03.580Z,101275.63
2023-03-29T09:12:52.759Z,101271.72
2023-03-29T09:15:24.940Z,101274.09
2023-03-29T09:18:12.799Z,101277.41
2023-03-29T09:20:52.029Z,101283.34
2023-03-29T09:23:58.241Z,101279.06
2023-03-29T09:26:41.003Z,101284.78
2023-03-29T09:29:42.174Z,101279.22
2023-03-29T09:32:20.812Z,101278.19
2023-03-29T09:35:04.679Z,101275.78
2023-03-29T09:37:38.578Z,101277.13
2023-03-29T09:40:14.730Z,101265.25
2023-03-29T09:42:55.793Z,101262.47
2023-03-29T09:45:24.994Z,101283.81
2023-03-29T09:47:59.212Z,101268.09
2023-03-29T09:50:35.996Z,101260.72
2023-03-29T09:53:09.845Z,101269.97
2023-03-29T09:55:44.872Z,101275.38
2023-03-29T09:58:34.486Z,101277.31
2023-03-29T10:01:10.467Z,101265.94
2023-03-29T10:03:41.665Z,101277.25
2023-03-29T10:06:18.641Z,101258.63
2023-03-29T10:08:57.963Z,101271.16
2023-03-29T10:11:48.672Z,101283.03
2023-03-29T10:14:20.691Z,101271.63
2023-03-29T10:16:56.966Z,101273.09
2023-03-29T10:19:30.432Z,101275.69
2023-03-29T10:22:01.645Z,101252.88
2023-03-29T10:24:32.478Z,101283.75
2023-03-29T10:27:03.796Z,101271.88
2023-03-29T10:29:38.200Z,101256.25
2023-03-29T10:32:15.845Z,101270.47
2023-03-29T10:34:46.906Z,101267.06
2023-03-29T10:37:19.311Z,101136.16
2023-03-29T10:39:50.291Z,101246.22
2023-03-29T10:42:24.433Z,101243.00
2023-03-29T10:44:55.462Z,101237.47
2023-03-29T10:47:25.062Z,101225.47
2023-03-29T10:49:56.994Z,101236.00
2023-03-29T10:52:26.888Z,101231.69
2023-03-29T10:54:59.291Z,101211.97
2023-03-29T10:57:34.936Z,101220.50
2023-03-29T11:00:12.518Z,101217.91
2023-03-29T11:03:07.360Z,101218.94
2023-03-29T11:05:44.125Z,101223.38
2023-03-29T11:08:33.580Z,101216.47
2023-03-29T11:11:21.944Z,101216.22
2023-03-29T11:14:00.041Z,101215.28
2023-03-29T11:16:35.556Z,101227.28
2023-03-29T11:19:26.027Z,101237.78
2023-03-29T11:22:01.387Z,101236.22
2023-03-29T11:24:47.742Z,101237.16
2023-03-29T11:27:30.195Z,101232.16
2023-03-29T11:30:08.361Z,101239.47
2023-03-29T11:32:48.543Z,101244.53
2023-03-29T11:35:49.386Z,101254.19
2023-03-29T11:38:29.226Z,101224.31
2023-03-29T11:41:09.415Z,101242.47
2023-03-29T11:43:44.207Z,101259.13
2023-03-29T11:46:17.039Z,101259.13
2023-03-29T11:48:51.978Z,101253.09
2023-03-29T11:51:27.216Z,101246.19
2023-03-29T11:54:02.909Z,101233.66
2023-03-29T11:56:37.918Z,101231.16
2023-03-29T11:59:16.108Z,101242.81
2023-03-29T12:01:50.812Z,101232.47
2023-03-29T12:04:26.271Z,101212.16
2023-03-29T12:07:03.212Z,101229.91
2023-03-29T12:09:36.629Z,101225.94
2023-03-29T12:12:11.834Z,101219.41
2023-03-29T12:14:56.227Z,101222.63
2023-03-29T12:17:31.927Z,101215.88
2023-03-29T12:20:08.665Z,101213.00
2023-03-29T12:22:49.078Z,101209.53
2023-03-29T12:25:24.826Z,101201.88
2023-03-29T12:28:06.842Z,101195.84
2023-03-29T12:31:05.539Z,101205.56
2023-03-29T12:34:07.002Z,101206.28
2023-03-29T12:37:32.250Z,101197.09
2023-03-29T12:40:42.989Z,101189.84
2023-03-29T12:43:34.171Z,101171.88
2023-03-29T12:46:26.976Z,101175.06
2023-03-29T12:49:05.924Z,101172.44
2023-03-29T12:51:40.934Z,101169.69
2023-03-29T12:54:15.932Z,101046.25
2023-03-29T12:56:58.431Z,101144.28
2023-03-29T12:59:37.207Z,101137.78
2023-03-29T13:05:27.718Z,101132.97
2023-03-29T13:07:56.999Z,101141.97
2023-03-29T13:10:40.777Z,101139.00
2023-03-29T13:13:15.697Z,101152.22
2023-03-29T13:15:46.106Z,101162.22
2023-03-29T13:18:34.107Z,101155.84
2023-03-29T13:21:15.519Z,101152.59
2023-03-29T13:23:53.091Z,101147.75
2023-03-29T13:26:35.163Z,101132.19
2023-03-29T13:29:39.955Z,101120.38
2023-03-29T13:32:27.948Z,101107.91
2023-03-29T13:35:05.159Z,101090.75
2023-03-29T13:37:47.423Z,101102.41
2023-03-29T13:40:43.700Z,101096.69
2023-03-29T13:43:22.456Z,101096.91
2023-03-29T13:46:07.834Z,101087.72
2023-03-29T13:48:52.809Z,101090.53
2023-03-29T13:51:28.443Z,101089.69
2023-03-29T13:54:08.379Z,101090.31
2023-03-29T13:56:44.712Z,101089.00
2023-03-29T13:59:20.038Z,101078.94
2023-03-29T14:01:54.630Z,101085.88
2023-03-29T14:04:29.423Z,101081.78
2023-03-29T14:06:59.389Z,101075.56
2023-03-29T14:09:34.080Z,101073.97
2023-03-29T14:12:03.178Z,101055.59
2023-03-29T14:14:33.975Z,101063.03
2023-03-29T14:17:04.124Z,101052.09
2023-03-29T14:19:37.722Z,101053.38
2023-03-29T14:22:10.880Z,101057.00
2023-03-29T14:24:48.148Z,101050.59
2023-03-29T14:27:17.769Z,101028.50
2023-03-29T14:29:48.180Z,101040.16
2023-03-29T14:32:18.973Z,101037.03
2023-03-29T14:34:51.706Z,101024.81
2023-03-29T14:37:24.139Z,101023.91
2023-03-29T14:39:55.054Z,101008.69
2023-03-29T14:42:27.995Z,101013.09
2023-03-29T14:44:59.809Z,101010.19
2023-03-29T14:47:31.613Z,100991.03
2023-03-29T14:50:01.831Z,100899.19
2023-03-29T14:52:32.549Z,100986.06
2023-03-29T14:55:04.203Z,100982.91
2023-03-29T14:57:36.739Z,100986.38
2023-03-29T15:00:22.418Z,100984.25
2023-03-29T15:02:55.251Z,100979.47
2023-03-29T15:05:29.791Z,100972.22
2023-03-29T15:07:58.780Z,100993.13
2023-03-29T15:10:32.735Z,100978.44
2023-03-29T15:13:04.111Z,100985.09
2023-03-29T15:15:35.734Z,100957.16
2023-03-29T15:18:09.140Z,100975.41
2023-03-29T15:20:40.226Z,100987.72
2023-03-29T15:23:23.878Z,100966.84
2023-03-29T15:25:57.226Z,100971.88
2023-03-29T15:28:28.428Z,100966.06
2023-03-29T15:33:37.239Z,100914.00
2023-03-29T15:36:08.377Z,100939.94
2023-03-29T15:38:43.829Z,100927.03
2023-03-29T15:41:15.477Z,100928.63
2023-03-29T15:43:44.520Z,100919.88
2023-03-29T15:46:14.544Z,100920.22
2023-03-29T15:48:43.933Z,100919.78
2023-03-29T15:51:13.360Z,100915.25
2023-03-29T15:53:42.755Z,100897.47
2023-03-29T15:56:19.430Z,100886.78
2023-03-29T15:58:48.872Z,100886.59
2023-03-29T16:01:33.856Z,100867.75
2023-03-29T16:04:03.860Z,100877.50
2023-03-29T16:06:33.534Z,100871.19
2023-03-29T16:09:02.638Z,100872.94
2023-03-29T16:11:32.799Z,100855.25
2023-03-29T16:14:03.878Z,100852.84
2023-03-29T16:16:32.856Z,100828.44
2023-03-29T16:19:03.743Z,100852.03
2023-03-29T16:21:32.520Z,100830.66
2023-03-29T16:24:01.757Z,100851.78
2023-03-29T16:26:34.578Z,100849.97
2023-03-29T16:29:05.722Z,100851.97
2023-03-29T16:31:34.526Z,100842.13
2023-03-29T16:34:03.509Z,100834.09
2023-03-29T16:36:33.888Z,100845.84
2023-03-29T16:39:03.218Z,100835.28
2023-03-29T16:41:32.515Z,100833.84
2023-03-29T16:44:05.418Z,100831.94
2023-03-29T16:46:34.803Z,100821.06
2023-03-29T16:49:04.333Z,100823.34
2023-03-29T16:51:33.107Z,100832.84
2023-03-29T16:54:04.151Z,100834.03
2023-03-29T16:56:32.879Z,100827.59
2023-03-29T16:59:01.605Z,100833.84
2023-03-29T17:01:32.355Z,100821.97
2023-03-29T17:04:03.641Z,100819.03
2023-03-29T17:06:33.016Z,100796.88
2023-03-29T17:09:02.109Z,100797.56
2023-03-29T17:11:33.165Z,100802.88
2023-03-29T17:14:04.317Z,100801.19
2023-03-29T17:16:34.499Z,100789.22
2023-03-29T17:19:03.345Z,100794.13
2023-03-29T17:21:32.036Z,100785.94
2023-03-29T17:24:00.973Z,100782.56
2023-03-29T17:26:29.881Z,100782.56
2023-03-29T17:28:58.597Z,100774.03
2023-03-29T17:31:27.767Z,100776.00
2023-03-29T17:33:58.160Z,100775.75
2023-03-29T17:36:28.935Z,100769.19
2023-03-29T17:41:30.444Z,100768.75
2023-03-29T17:43:59.865Z,100762.13
2023-03-29T17:46:28.705Z,100766.16
2023-03-29T17:48:59.251Z,100764.94
2023-03-29T17:51:28.862Z,100737.00
2023-03-29T17:53:58.317Z,100760.84
2023-03-29T17:56:27.481Z,100753.44
2023-03-29T17:59:01.039Z,100748.97
2023-03-29T18:01:32.876Z,100745.19
2023-03-29T18:04:08.041Z,100748.53
2023-03-29T18:06:37.155Z,100732.94
2023-03-29T18:09:06.155Z,100734.66
2023-03-29T18:11:36.464Z,100736.00
2023-03-29T18:14:06.100Z,100629.47
2023-03-29T18:16:34.995Z,100726.41
2023-03-29T18:19:07.382Z,100731.44
2023-03-29T18:21:37.016Z,100732.22
2023-03-29T18:24:05.902Z,100734.75
2023-03-29T18:26:34.710Z,100727.63
2023-03-29T18:29:03.454Z,100728.38
2023-03-29T18:31:32.345Z,100722.63
2023-03-29T18:34:01.520Z,100708.50
2023-03-29T18:36:32.374Z,100725.06
2023-03-29T18:39:05.714Z,100719.09
2023-03-29T18:41:35.723Z,100725.72
2023-03-29T18:44:05.168Z,100717.66
2023-03-29T18:46:34.295Z,100697.78
2023-03-29T18:49:04.095Z,100724.59
2023-03-29T18:51:34.821Z,100718.38
2023-03-29T18:54:04.355Z,100722.63
2023-03-29T18:56:33.062Z,100710.75
2023-03-29T18:59:05.169Z,100706.41
2023-03-29T19:01:34.704Z,100687.38
2023-03-29T19:04:03.856Z,100685.38
2023-03-29T19:06:34.138Z,100701.88
2023-03-29T19:09:05.299Z,100698.59
2023-03-29T19:11:36.125Z,100696.69
2023-03-29T19:14:08.528Z,100680.13
2023-03-29T19:16:38.206Z,100568.28
2023-03-29T19:19:08.534Z,100682.53
2023-03-29T19:21:39.429Z,100668.97
2023-03-29T19:24:09.624Z,100654.16
2023-03-29T19:26:39.109Z,100659.63
2023-03-29T19:29:08.745Z,100658.59
2023-03-29T19:31:39.620Z,100672.91
2023-03-29T19:34:11.040Z,100658.94
2023-03-29T19:36:41.898Z,100643.41
2023-03-29T19:39:10.690Z,100648.25
2023-03-29T19:41:41.392Z,100627.47
2023-03-29T19:44:10.675Z,100637.56
2023-03-29T19:46:39.501Z,100625.75
2023-03-29T19:49:13.693Z,100619.25
2023-03-29T19:51:46.359Z,100609.56
2023-03-29T19:54:17.340Z,100517.91
2023-03-29T19:56:49.538Z,100616.25
2023-03-29T19:59:22.772Z,100609.06
2023-03-29T20:01:51.876Z,100611.78
2023-03-29T20:04:22.757Z,100595.66
2023-03-29T20:06:53.049Z,100612.63
2023-03-29T20:09:21.836Z,100612.88
2023-03-29T20:11:50.649Z,100594.50
2023-03-29T20:14:19.405Z,100590.47
2023-03-29T20:16:49.930Z,100584.78
2023-03-29T20:19:23.750Z,100579.88
2023-03-29T20:21:57.507Z,100569.19
2023-03-29T20:24:28.940Z,100560.81
2023-03-29T20:26:57.729Z,100552.53
2023-03-29T20:29:29.765Z,100535.28
2023-03-29T20:31:59.304Z,100545.41
2023-03-29T20:34:28.399Z,100528.97
2023-03-29T20:37:00.997Z,100528.22
2023-03-29T20:39:31.415Z,100516.78
2023-03-29T20:42:00.567Z,100490.72
2023-03-29T20:44:29.541Z,100505.06
2023-03-29T20:47:06.324Z,100504.84
2023-03-29T20:49:38.160Z,100513.25
2023-03-29T20:52:15.443Z,100500.00
2023-03-29T20:54:44.935Z,100509.59
2023-03-29T20:57:16.074Z,100504.50
2023-03-29T20:59:46.138Z,100513.16
2023-03-29T21:02:17.391Z,100508.88
2023-03-29T21:04:51.994Z,100511.16
2023-03-29T21:07:23.040Z,100497.84
2023-03-29T21:09:52.677Z,100490.81
2023-03-29T21:12:23.732Z,100491.97
2023-03-29T21:14:53.197Z,100485.16
2023-03-29T21:17:22.216Z,100483.16
2023-03-29T21:19:52.229Z,100472.25
2023-03-29T21:22:23.454Z,100462.25
2023-03-29T21:24:53.072Z,100460.38
2023-03-29T21:27:22.467Z,100466.06
2023-03-29T21:29:52.080Z,100463.91
2023-03-29T21:32:22.171Z,100447.47
2023-03-29T21:34:51.984Z,100455.31
2023-03-29T21:37:23.556Z,100450.00
2023-03-29T21:39:53.491Z,100446.94
2023-03-29T21:42:23.198Z,100448.44
2023-03-29T21:44:52.751Z,100437.66
2023-03-29T21:47:24.035Z,100435.41
2023-03-29T21:49:53.472Z,100435.28
2023-03-29T21:52:24.085Z,100412.13
2023-03-29T21:54:53.969Z,100442.88
2023-03-29T21:57:23.143Z,100445.47
2023-03-29T21:59:52.697Z,100449.75
2023-03-29T22:02:25.043Z,100456.69
2023-03-29T22:04:54.706Z,100455.53
2023-03-29T22:07:25.985Z,100454.97
2023-03-29T22:09:59.106Z,100446.38
2023-03-29T22:12:28.622Z,100445.97
2023-03-29T22:15:00.868Z,100418.97
2023-03-29T22:17:30.365Z,100428.00
2023-03-29T22:19:59.516Z,100432.91
2023-03-29T22:22:31.140Z,100433.59
2023-03-29T22:25:00.634Z,100428.72
2023-03-29T22:27:30.204Z,100426.63
2023-03-29T22:30:00.094Z,100427.00
2023-03-29T22:32:32.621Z,100426.19
2023-03-29T22:35:01.988Z,100407.69
2023-03-29T22:37:33.270Z,100413.50
2023-03-29T22:40:02.683Z,100407.69
2023-03-29T22:42:32.449Z,100412.03
2023-03-29T22:45:01.846Z,100405.13
2023-03-29T22:47:31.487Z,100395.59
2023-03-29T22:50:01.331Z,100411.19
2023-03-29T22:52:30.287Z,100399.16
2023-03-29T22:55:00.969Z,100398.22
2023-03-29T22:57:30.303Z,100399.84
2023-03-29T22:59:59.633Z,100396.31
2023-03-29T23:02:29.823Z,100393.41
2023-03-29T23:04:59.083Z,100405.03
2023-03-29T23:07:29.999Z,100391.25
2023-03-29T23:10:01.582Z,100396.09
2023-03-29T23:12:31.873Z,100391.09
2023-03-29T23:15:01.595Z,100384.47
2023-03-29T23:17:33.201Z,100398.16
2023-03-29T23:20:06.206Z,100389.31
2023-03-29T23:22:36.733Z,100382.41
2023-03-29T23:25:08.590Z,100386.97
2023-03-29T23:27:38.273Z,100387.63
2023-03-29T23:30:10.011Z,100389.38
2023-03-29T23:32:40.195Z,100291.94
2023-03-29T23:35:10.450Z,100379.16
2023-03-29T23:37:39.763Z,100378.72
2023-03-29T23:40:14.093Z,100387.66
2023-03-29T23:42:45.311Z,100377.88
2023-03-29T23:45:18.480Z,100372.84
2023-03-29T23:47:48.474Z,100375.47
2023-03-29T23:50:18.543Z,100375.84
2023-03-29T23:52:49.753Z,100369.59
2023-03-29T23:55:21.044Z,100369.41
2023-03-29T23:57:50.668Z,100369.81
